createdAt,value
2023-11-08T00:00:50.684Z,7.30
2023-11-08T00:03:18.175Z,9.40
2023-11-08T00:05:46.080Z,9.20
2023-11-08T00:08:13.856Z,9.30
2023-11-08T00:10:43.569Z,9.90
2023-11-08T00:13:11.807Z,6.80
2023-11-08T00:15:40.162Z,8.00
2023-11-08T00:18:11.796Z,10.30
2023-11-08T00:20:41.893Z,9.70
2023-11-08T00:23:09.550Z,14.40
2023-11-08T00:25:38.149Z,9.00
2023-11-08T00:28:05.793Z,8.20
2023-11-08T00:30:32.887Z,8.60
2023-11-08T00:33:03.643Z,9.70
2023-11-08T00:35:32.628Z,7.50
2023-11-08T00:38:03.964Z,9.80
2023-11-08T00:40:31.265Z,6.90
2023-11-08T00:43:00.727Z,8.40
2023-11-08T00:45:28.265Z,10.30
2023-11-08T00:47:56.393Z,7.90
2023-11-08T00:50:24.509Z,7.10
2023-11-08T00:52:53.832Z,8.70
2023-11-08T00:55:21.040Z,9.60
2023-11-08T00:57:48.725Z,6.40
2023-11-08T01:00:16.937Z,8.60
2023-11-08T01:02:46.176Z,9.00
2023-11-08T01:05:17.516Z,7.90
2023-11-08T01:07:44.761Z,6.30
2023-11-08T01:10:12.039Z,9.60
2023-11-08T01:12:39.191Z,7.40
2023-11-08T01:15:08.188Z,8.50
2023-11-08T01:17:35.374Z,7.90
2023-11-08T01:20:04.720Z,7.60
2023-11-08T01:22:34.166Z,8.00
2023-11-08T01:25:01.766Z,6.90
2023-11-08T01:27:30.084Z,6.90
2023-11-08T01:29:57.439Z,6.50
2023-11-08T01:32:24.704Z,6.70
2023-11-08T01:34:51.753Z,8.30
2023-11-08T01:37:19.341Z,7.70
2023-11-08T01:39:46.669Z,12.10
2023-11-08T01:42:13.805Z,7.00
2023-11-08T01:44:43.855Z,7.60
2023-11-08T01:47:10.945Z,6.60
2023-11-08T01:49:38.271Z,6.20
2023-11-08T01:52:05.758Z,7.50
2023-11-08T01:54:32.972Z,8.20
2023-11-08T01:57:06.018Z,7.60
2023-11-08T01:59:34.515Z,8.70
2023-11-08T02:02:01.507Z,6.20
2023-11-08T02:04:30.896Z,6.90
2023-11-08T02:06:58.571Z,6.90
2023-11-08T02:09:26.689Z,7.30
2023-11-08T02:11:53.739Z,7.40
2023-11-08T02:14:21.185Z,8.60
2023-11-08T02:16:48.376Z,8.00
2023-11-08T02:19:15.789Z,7.50
2023-11-08T02:21:42.863Z,6.90
2023-11-08T02:24:18.881Z,7.60
2023-11-08T02:26:52.294Z,7.70
2023-11-08T02:29:21.439Z,6.70
2023-11-08T02:31:53.046Z,7.30
2023-11-08T02:34:21.981Z,5.80
2023-11-08T02:36:50.918Z,7.60
2023-11-08T02:39:19.816Z,7.30
2023-11-08T02:41:49.436Z,8.50
2023-11-08T02:44:16.444Z,5.90
2023-11-08T02:46:43.469Z,7.30
2023-11-08T02:49:12.614Z,6.00
2023-11-08T02:51:40.167Z,7.50
2023-11-08T02:54:08.155Z,6.80
2023-11-08T02:56:39.590Z,6.50
2023-11-08T02:59:06.648Z,5.70
2023-11-08T03:01:34.182Z,6.20
2023-11-08T03:04:02.584Z,7.50
2023-11-08T03:06:30.131Z,6.50
2023-11-08T03:08:57.281Z,6.20
2023-11-08T03:11:24.993Z,6.60
2023-11-08T03:13:52.132Z,6.00
2023-11-08T03:16:19.199Z,6.10
2023-11-08T03:18:46.331Z,5.00
2023-11-08T03:21:13.326Z,6.30
2023-11-08T03:23:40.530Z,6.90
2023-11-08T03:26:07.543Z,6.30
2023-11-08T03:28:34.510Z,7.30
2023-11-08T03:31:01.893Z,5.70
2023-11-08T03:33:29.206Z,7.50
2023-11-08T03:35:56.251Z,7.10
2023-11-08T03:38:23.281Z,7.60
2023-11-08T03:40:50.245Z,5.90
2023-11-08T03:43:19.470Z,7.70
2023-11-08T03:45:46.474Z,6.00
2023-11-08T03:48:13.753Z,5.80
2023-11-08T03:50:40.837Z,7.70
2023-11-08T03:53:08.213Z,5.90
2023-11-08T03:55:37.065Z,5.80
2023-11-08T03:58:04.064Z,5.50
2023-11-08T04:00:31.075Z,8.30
2023-11-08T04:03:00.250Z,6.60
2023-11-08T04:05:31.890Z,4.90
2023-11-08T04:07:59.215Z,5.80
2023-11-08T04:10:26.291Z,7.70
2023-11-08T04:12:53.357Z,4.80
2023-11-08T04:15:20.886Z,4.60
2023-11-08T04:17:48.128Z,6.00
2023-11-08T04:20:15.880Z,4.90
2023-11-08T04:22:43.584Z,5.30
2023-11-08T04:25:14.555Z,6.40
2023-11-08T04:27:41.678Z,5.20
2023-11-08T04:30:10.066Z,5.60
2023-11-08T04:32:37.621Z,5.50
2023-11-08T04:35:05.299Z,7.00
2023-11-08T04:37:32.525Z,4.60
2023-11-08T04:39:59.459Z,6.80
2023-11-08T04:42:27.475Z,7.40
2023-11-08T04:44:54.495Z,6.10
2023-11-08T04:47:22.265Z,6.90
2023-11-08T04:49:49.814Z,5.70
2023-11-08T04:52:17.352Z,5.10
2023-11-08T04:54:54.538Z,7.20
2023-11-08T04:57:22.875Z,4.50
2023-11-08T04:59:50.954Z,5.90
2023-11-08T05:02:20.231Z,5.70
2023-11-08T05:04:48.988Z,7.30
2023-11-08T05:07:19.415Z,5.50
2023-11-08T05:09:47.222Z,4.70
2023-11-08T05:12:14.390Z,5.40
2023-11-08T05:14:41.313Z,5.60
2023-11-08T05:17:08.978Z,9.50
2023-11-08T05:19:36.200Z,6.00
2023-11-08T05:22:03.572Z,6.10
2023-11-08T05:24:32.196Z,5.10
2023-11-08T05:27:00.090Z,5.50
2023-11-08T05:29:27.272Z,6.20
2023-11-08T05:31:54.609Z,5.40
2023-11-08T05:34:21.880Z,4.60
2023-11-08T05:36:49.111Z,4.60
2023-11-08T05:39:26.249Z,7.10
2023-11-08T05:41:54.260Z,6.20
2023-11-08T05:44:21.814Z,5.40
2023-11-08T05:46:50.593Z,7.20
2023-11-08T05:49:18.614Z,4.00
2023-11-08T05:51:45.599Z,6.40
2023-11-08T05:54:12.610Z,6.50
2023-11-08T05:56:39.774Z,4.70
2023-11-08T05:59:07.745Z,6.00
2023-11-08T06:01:35.065Z,4.70
2023-11-08T06:04:02.951Z,4.20
2023-11-08T06:06:30.079Z,4.40
2023-11-08T06:08:57.083Z,5.90
2023-11-08T06:11:24.104Z,9.20
2023-11-08T06:13:51.152Z,5.70
2023-11-08T06:16:18.092Z,5.50
2023-11-08T06:18:45.233Z,5.60
2023-11-08T06:21:16.490Z,4.90
2023-11-08T06:23:45.479Z,7.50
2023-11-08T06:26:16.282Z,5.60
2023-11-08T06:28:43.759Z,5.10
2023-11-08T06:31:10.769Z,5.40
2023-11-08T06:33:40.020Z,10.40
2023-11-08T06:36:07.954Z,7.30
2023-11-08T06:38:35.323Z,9.80
2023-11-08T06:41:02.423Z,8.00
2023-11-08T06:43:29.400Z,5.70
2023-11-08T06:45:56.525Z,7.90
2023-11-08T06:48:23.685Z,6.10
2023-11-08T06:50:50.767Z,10.00
2023-11-08T06:53:19.240Z,11.30
2023-11-08T06:55:47.806Z,6.80
2023-11-08T06:58:15.118Z,8.40
2023-11-08T07:00:42.306Z,10.40
2023-11-08T07:03:10.762Z,6.00
2023-11-08T07:05:39.297Z,10.20
2023-11-08T07:08:09.558Z,5.60
2023-11-08T07:10:37.019Z,7.00
2023-11-08T07:13:03.933Z,9.00
2023-11-08T07:15:31.860Z,9.60
2023-11-08T07:17:59.060Z,7.70
2023-11-08T07:20:27.180Z,7.40
2023-11-08T07:22:54.220Z,8.20
2023-11-08T07:25:21.185Z,6.70
2023-11-08T07:27:48.308Z,8.50
2023-11-08T07:30:18.161Z,7.60
2023-11-08T07:32:49.351Z,7.30
2023-11-08T07:35:16.552Z,5.90
2023-11-08T07:37:43.537Z,8.70
2023-11-08T07:40:13.978Z,6.00
2023-11-08T07:42:44.195Z,7.40
2023-11-08T07:45:12.809Z,5.70
2023-11-08T07:47:39.930Z,6.40
2023-11-08T07:50:07.835Z,6.80
2023-11-08T07:52:34.987Z,6.10
2023-11-08T07:55:02.325Z,7.50
2023-11-08T07:57:29.716Z,6.70
2023-11-08T07:59:56.751Z,5.40
2023-11-08T08:02:24.189Z,6.50
2023-11-08T08:04:51.400Z,6.40
2023-11-08T08:07:18.480Z,9.40
2023-11-08T08:09:46.431Z,8.70
2023-11-08T08:12:13.543Z,7.30
2023-11-08T08:14:40.614Z,7.60
2023-11-08T08:17:07.732Z,6.60
2023-11-08T08:19:34.939Z,7.10
2023-11-08T08:22:03.532Z,9.60
2023-11-08T08:24:30.918Z,11.20
2023-11-08T08:26:58.162Z,7.30
2023-11-08T08:29:27.506Z,8.30
2023-11-08T08:31:54.896Z,6.60
2023-11-08T08:34:28.763Z,8.10
2023-11-08T08:36:58.782Z,17.10
2023-11-08T08:39:29.782Z,9.40
2023-11-08T08:41:57.903Z,8.90
2023-11-08T08:44:26.294Z,13.00
2023-11-08T08:46:53.770Z,6.70
2023-11-08T08:49:22.989Z,10.50
2023-11-08T08:51:51.519Z,8.50
2023-11-08T08:54:22.832Z,9.80
2023-11-08T08:56:50.364Z,15.90
2023-11-08T08:59:17.671Z,8.80
2023-11-08T09:01:45.383Z,12.80
2023-11-08T09:04:13.258Z,12.90
2023-11-08T09:06:40.525Z,11.70
2023-11-08T09:09:13.711Z,8.70
2023-11-08T09:11:42.076Z,14.00
2023-11-08T09:14:09.794Z,12.00
2023-11-08T09:16:39.709Z,7.10
2023-11-08T09:19:09.801Z,10.10
2023-11-08T09:21:37.981Z,12.20
2023-11-08T09:24:08.150Z,8.50
2023-11-08T09:26:36.532Z,10.60
2023-11-08T09:29:04.444Z,12.00
2023-11-08T09:31:31.594Z,9.00
2023-11-08T09:33:58.834Z,10.30
2023-11-08T09:36:27.141Z,12.50
2023-11-08T09:38:54.987Z,10.30
2023-11-08T09:41:23.597Z,11.60
2023-11-08T09:43:52.687Z,11.70
2023-11-08T09:46:20.554Z,11.60
2023-11-08T09:48:51.110Z,8.50
2023-11-08T09:51:18.593Z,8.80
2023-11-08T09:53:47.544Z,11.50
2023-11-08T09:56:14.994Z,15.00
2023-11-08T09:58:47.027Z,6.70
2023-11-08T10:01:18.254Z,12.90
2023-11-08T10:03:46.783Z,12.70
2023-11-08T10:06:14.450Z,12.20
2023-11-08T10:08:41.781Z,15.30
2023-11-08T10:11:08.858Z,10.00
2023-11-08T10:13:50.982Z,14.10
2023-11-08T10:16:18.992Z,11.90
2023-11-08T10:19:36.901Z,11.80
2023-11-08T10:21:52.771Z,12.90
2023-11-08T10:24:21.232Z,9.90
2023-11-08T10:26:49.099Z,14.00
2023-11-08T10:29:18.435Z,10.60
2023-11-08T10:31:46.724Z,14.60
2023-11-08T10:34:21.515Z,12.50
2023-11-08T10:37:05.058Z,10.80
2023-11-08T10:39:32.245Z,12.80
2023-11-08T10:41:59.740Z,12.80
2023-11-08T10:44:30.699Z,10.10
2023-11-08T10:46:59.518Z,12.50
2023-11-08T10:49:27.397Z,14.30
2023-11-08T10:51:58.243Z,10.20
2023-11-08T10:54:25.643Z,17.20
2023-11-08T10:56:56.428Z,10.20
2023-11-08T10:59:25.042Z,11.10
2023-11-08T11:01:52.556Z,13.70
2023-11-08T11:04:23.429Z,12.90
2023-11-08T11:06:56.277Z,11.20
2023-11-08T11:09:24.229Z,11.40
2023-11-08T11:11:59.333Z,14.10
2023-11-08T11:14:38.804Z,15.50
2023-11-08T11:17:31.630Z,6.90
2023-11-08T11:20:06.842Z,16.10
2023-11-08T11:22:34.817Z,13.70
2023-11-08T11:25:05.097Z,20.60
2023-11-08T11:27:36.477Z,11.90
2023-11-08T11:30:16.716Z,8.90
2023-11-08T11:32:48.714Z,13.40
2023-11-08T11:35:19.843Z,11.90
2023-11-08T11:38:08.913Z,10.90
2023-11-08T11:40:49.964Z,13.10
2023-11-08T11:43:32.488Z,10.30
2023-11-08T11:46:00.660Z,12.90
2023-11-08T11:48:34.888Z,12.30
2023-11-08T11:51:06.530Z,13.90
2023-11-08T11:53:34.199Z,17.00
2023-11-08T11:56:08.297Z,13.80
2023-11-08T11:58:37.042Z,15.00
2023-11-08T12:01:07.844Z,15.00
2023-11-08T12:03:35.407Z,13.10
2023-11-08T12:06:03.367Z,15.60
2023-11-08T12:08:30.696Z,13.40
2023-11-08T12:11:15.446Z,15.70
2023-11-08T12:13:52.861Z,13.60
2023-11-08T12:16:21.108Z,14.60
2023-11-08T12:18:49.508Z,19.60
2023-11-08T12:21:18.139Z,15.40
2023-11-08T12:23:48.613Z,14.00
2023-11-08T12:26:15.688Z,13.90
2023-11-08T12:28:45.502Z,10.90
2023-11-08T12:31:15.169Z,11.10
2023-11-08T12:33:42.477Z,13.50
2023-11-08T12:36:11.067Z,13.10
2023-11-08T12:38:41.813Z,11.10
2023-11-08T12:41:10.197Z,9.00
2023-11-08T12:43:59.081Z,12.30
2023-11-08T12:46:37.943Z,11.30
2023-11-08T12:49:16.833Z,13.60
2023-11-08T12:51:46.104Z,11.30
2023-11-08T12:54:18.739Z,10.40
2023-11-08T12:56:47.730Z,14.40
2023-11-08T12:59:22.876Z,13.60
2023-11-08T13:01:51.454Z,10.90
2023-11-08T13:04:20.801Z,11.30
2023-11-08T13:06:49.473Z,9.90
2023-11-08T13:09:17.724Z,9.90
2023-11-08T13:11:46.707Z,12.40
2023-11-08T13:14:13.904Z,12.00
2023-11-08T13:16:41.928Z,12.50
2023-11-08T13:19:09.442Z,12.30
2023-11-08T13:21:37.184Z,13.30
2023-11-08T13:24:07.368Z,12.90
2023-11-08T13:26:37.265Z,11.80
2023-11-08T13:29:05.305Z,11.80
2023-11-08T13:31:33.697Z,10.50
2023-11-08T13:34:01.248Z,11.30
2023-11-08T13:36:29.348Z,11.90
2023-11-08T13:38:57.667Z,11.70
2023-11-08T13:41:28.861Z,13.90
2023-11-08T13:43:55.960Z,12.30
2023-11-08T13:46:24.357Z,10.40
2023-11-08T13:48:52.281Z,10.70
2023-11-08T13:51:19.852Z,13.40
2023-11-08T13:53:48.532Z,11.40
2023-11-08T13:56:15.780Z,9.10
2023-11-08T13:58:49.378Z,10.50
2023-11-08T14:01:18.149Z,10.30
2023-11-08T14:03:48.978Z,11.00
2023-11-08T14:06:17.633Z,8.20
2023-11-08T14:08:45.187Z,13.20
2023-11-08T14:11:12.383Z,9.90
2023-11-08T14:13:40.152Z,10.00
2023-11-08T14:16:10.120Z,10.00
2023-11-08T14:18:37.864Z,13.20
2023-11-08T14:21:05.148Z,12.30
2023-11-08T14:23:32.609Z,8.20
2023-11-08T14:26:01.311Z,9.30
2023-11-08T14:28:29.109Z,9.80
2023-11-08T14:30:56.484Z,8.40
2023-11-08T14:33:26.085Z,9.20
2023-11-08T14:35:54.150Z,8.30
2023-11-08T14:38:23.170Z,10.60
2023-11-08T14:40:51.243Z,6.50
2023-11-08T14:43:20.732Z,9.60
2023-11-08T14:45:49.545Z,8.50
2023-11-08T14:48:16.791Z,12.20
2023-11-08T14:50:45.040Z,12.30
2023-11-08T14:53:14.252Z,11.00
2023-11-08T14:55:42.535Z,10.70
2023-11-08T14:58:10.133Z,13.40
2023-11-08T15:00:37.244Z,10.20
2023-11-08T15:03:08.428Z,8.20
2023-11-08T15:05:37.371Z,8.80
2023-11-08T15:09:48.471Z,11.50
2023-11-08T15:10:54.389Z,8.90
2023-11-08T15:13:21.529Z,7.20
2023-11-08T15:15:48.600Z,10.80
2023-11-08T15:18:18.505Z,11.10
2023-11-08T15:20:46.778Z,8.70
2023-11-08T15:23:14.043Z,8.90
2023-11-08T15:25:41.579Z,10.00
2023-11-08T15:28:10.616Z,6.90
2023-11-08T15:30:38.560Z,9.50
2023-11-08T15:33:06.121Z,8.80
2023-11-08T15:35:33.253Z,8.20
2023-11-08T15:38:00.395Z,7.70
2023-11-08T15:40:27.732Z,8.50
2023-11-08T15:42:55.403Z,9.80
2023-11-08T15:45:25.950Z,9.00
2023-11-08T15:47:55.160Z,7.80
2023-11-08T15:50:22.398Z,6.50
2023-11-08T15:52:50.274Z,7.60
2023-11-08T15:55:18.351Z,10.90
2023-11-08T15:57:45.434Z,9.80
2023-11-08T16:00:15.459Z,12.50
2023-11-08T16:02:42.539Z,5.10
2023-11-08T16:05:10.525Z,4.80
2023-11-08T16:07:38.909Z,6.40
2023-11-08T16:10:09.010Z,7.20
2023-11-08T16:12:36.099Z,5.20
2023-11-08T16:15:05.597Z,6.30
2023-11-08T16:17:33.152Z,7.50
2023-11-08T16:20:01.651Z,4.90
2023-11-08T16:22:28.702Z,5.50
2023-11-08T16:24:57.445Z,4.20
2023-11-08T16:27:24.511Z,8.40
2023-11-08T16:29:54.574Z,5.50
2023-11-08T16:32:35.806Z,5.80
2023-11-08T16:35:14.336Z,7.10
2023-11-08T16:37:41.818Z,6.70
2023-11-08T16:40:11.649Z,9.40
2023-11-08T16:42:39.465Z,7.30
2023-11-08T16:45:08.618Z,6.90
2023-11-08T16:47:36.665Z,4.80
2023-11-08T16:50:04.228Z,5.90
2023-11-08T16:52:31.255Z,5.30
2023-11-08T16:54:58.555Z,7.10
2023-11-08T16:57:25.646Z,5.50
2023-11-08T16:59:52.692Z,5.40
2023-11-08T17:02:19.787Z,5.00
2023-11-08T17:04:48.123Z,4.30
2023-11-08T17:07:15.444Z,7.10
2023-11-08T17:09:42.458Z,6.80
2023-11-08T17:12:09.873Z,4.30
2023-11-08T17:14:37.576Z,5.70
2023-11-08T17:17:05.119Z,7.40
2023-11-08T17:19:32.536Z,4.70
2023-11-08T17:22:01.058Z,4.10
2023-11-08T17:24:28.238Z,7.20
2023-11-08T17:26:55.604Z,6.90
2023-11-08T17:29:23.070Z,4.70
2023-11-08T17:31:52.425Z,7.90
2023-11-08T17:34:20.303Z,6.00
2023-11-08T17:36:49.008Z,5.60
2023-11-08T17:39:16.131Z,8.00
2023-11-08T17:41:43.957Z,6.50
2023-11-08T17:44:12.015Z,3.80
2023-11-08T17:46:41.556Z,9.90
2023-11-08T17:49:08.602Z,7.20
2023-11-08T17:51:39.252Z,3.70
2023-11-08T17:54:09.324Z,5.70
2023-11-08T17:56:37.378Z,8.90
2023-11-08T17:59:06.377Z,15.10
2023-11-08T18:01:34.659Z,45.90
2023-11-08T18:04:02.944Z,69.10
2023-11-08T18:06:30.172Z,65.80
2023-11-08T18:08:57.425Z,52.50
2023-11-08T18:11:27.258Z,48.10
2023-11-08T18:13:54.318Z,44.90
2023-11-08T18:16:23.414Z,48.00
2023-11-08T18:18:50.930Z,44.20
2023-11-08T18:21:18.725Z,39.70
2023-11-08T18:23:45.979Z,35.40
2023-11-08T18:26:14.666Z,33.40
2023-11-08T18:28:44.107Z,31.20
2023-11-08T18:31:13.518Z,31.70
2023-11-08T18:33:42.856Z,35.80
2023-11-08T18:36:10.838Z,30.60
2023-11-08T18:38:38.539Z,27.20
2023-11-08T18:41:05.705Z,29.60
2023-11-08T18:43:33.014Z,24.90
2023-11-08T18:46:00.254Z,21.90
2023-11-08T18:48:27.940Z,27.90
2023-11-08T18:50:55.894Z,31.60
2023-11-08T18:53:25.138Z,25.40
2023-11-08T18:55:52.409Z,23.10
2023-11-08T18:58:24.350Z,31.20
2023-11-08T19:00:54.943Z,24.90
2023-11-08T19:03:22.160Z,22.20
2023-11-08T19:05:50.514Z,22.40
2023-11-08T19:08:18.322Z,22.30
2023-11-08T19:10:48.149Z,19.40
2023-11-08T19:13:16.055Z,17.50
2023-11-08T19:15:43.644Z,20.00
2023-11-08T19:18:16.722Z,20.40
2023-11-08T19:20:44.116Z,22.30
2023-11-08T19:23:16.735Z,19.20
2023-11-08T19:25:53.174Z,16.40
2023-11-08T19:28:21.250Z,13.70
2023-11-08T19:30:49.659Z,20.40
2023-11-08T19:33:17.362Z,19.80
2023-11-08T19:35:44.803Z,20.60
2023-11-08T19:38:15.297Z,20.30
2023-11-08T19:40:44.680Z,23.00
2023-11-08T19:43:12.302Z,23.50
2023-11-08T19:45:39.479Z,24.40
2023-11-08T19:48:06.646Z,20.50
2023-11-08T19:50:42.780Z,21.20
2023-11-08T19:53:12.617Z,18.90
2023-11-08T19:55:40.370Z,20.20
2023-11-08T19:58:11.375Z,18.80
2023-11-08T20:00:39.717Z,22.20
2023-11-08T20:03:07.626Z,18.60
2023-11-08T20:05:35.975Z,19.70
2023-11-08T20:08:05.216Z,21.70
2023-11-08T20:10:33.130Z,19.60
2023-11-08T20:13:00.889Z,21.70
2023-11-08T20:15:29.342Z,20.30
2023-11-08T20:17:56.724Z,18.60
2023-11-08T20:20:24.378Z,18.60
2023-11-08T20:22:54.220Z,17.80
2023-11-08T20:25:22.412Z,15.40
2023-11-08T20:27:50.165Z,15.30
2023-11-08T20:30:17.367Z,15.70
2023-11-08T20:32:44.733Z,19.60
2023-11-08T20:35:13.179Z,15.90
2023-11-08T20:37:42.051Z,18.20
2023-11-08T20:40:10.375Z,14.30
2023-11-08T20:42:38.733Z,18.80
2023-11-08T20:45:06.835Z,16.30
2023-11-08T20:47:34.713Z,19.70
2023-11-08T20:50:02.758Z,18.60
2023-11-08T20:52:30.777Z,18.00
2023-11-08T20:54:58.761Z,19.70
2023-11-08T20:57:26.777Z,16.30
2023-11-08T20:59:54.429Z,19.10
2023-11-08T21:02:21.899Z,13.80
2023-11-08T21:04:48.920Z,19.30
2023-11-08T21:07:16.409Z,15.40
2023-11-08T21:09:43.543Z,17.10
2023-11-08T21:12:11.720Z,15.60
2023-11-08T21:14:38.818Z,13.70
2023-11-08T21:17:07.995Z,12.40
2023-11-08T21:19:35.398Z,12.50
2023-11-08T21:22:03.601Z,12.10
2023-11-08T21:24:30.845Z,13.80
2023-11-08T21:26:58.527Z,16.80
2023-11-08T21:29:26.452Z,15.20
2023-11-08T21:31:54.421Z,14.40
2023-11-08T21:34:21.751Z,11.80
2023-11-08T21:36:49.486Z,11.50
2023-11-08T21:39:18.692Z,15.80
2023-11-08T21:41:49.548Z,12.30
2023-11-08T21:44:16.638Z,12.30
2023-11-08T21:46:45.208Z,12.80
2023-11-08T21:49:13.541Z,9.80
2023-11-08T21:51:40.792Z,12.40
2023-11-08T21:54:12.932Z,11.20
2023-11-08T21:56:40.234Z,12.90
2023-11-08T21:59:07.952Z,15.30
2023-11-08T22:01:35.919Z,8.80
2023-11-08T22:04:03.757Z,9.20
2023-11-08T22:06:31.291Z,11.80
2023-11-08T22:08:59.718Z,10.10
2023-11-08T22:11:28.216Z,11.60
2023-11-08T22:13:55.406Z,10.20
2023-11-08T22:16:22.479Z,10.20
2023-11-08T22:18:49.715Z,10.80
2023-11-08T22:21:17.006Z,10.80
2023-11-08T22:23:53.256Z,9.20
2023-11-08T22:26:23.389Z,11.80
2023-11-08T22:28:52.701Z,12.50
2023-11-08T22:31:21.228Z,8.90
2023-11-08T22:33:48.354Z,12.00
2023-11-08T22:36:15.747Z,8.50
2023-11-08T22:38:43.467Z,8.10
2023-11-08T22:41:10.838Z,8.80
2023-11-08T22:43:37.898Z,8.10
2023-11-08T22:46:05.227Z,8.60
2023-11-08T22:48:33.190Z,9.60
2023-11-08T22:51:00.415Z,10.10
2023-11-08T22:53:27.477Z,9.70
2023-11-08T22:55:54.720Z,6.90
2023-11-08T22:58:22.940Z,7.10
2023-11-08T23:00:50.924Z,8.10
2023-11-08T23:03:18.560Z,9.10
2023-11-08T23:05:46.782Z,9.30
2023-11-08T23:08:14.365Z,8.70
2023-11-08T23:10:41.406Z,9.60
2023-11-08T23:13:08.803Z,10.10
2023-11-08T23:15:37.041Z,10.50
2023-11-08T23:18:06.698Z,7.10
2023-11-08T23:20:34.521Z,7.50
2023-11-08T23:23:01.629Z,7.30
2023-11-08T23:25:28.863Z,5.90
2023-11-08T23:27:56.244Z,6.80
2023-11-08T23:30:23.205Z,6.90
2023-11-08T23:32:50.491Z,7.90
2023-11-08T23:35:17.592Z,6.80
2023-11-08T23:37:51.668Z,9.90
2023-11-08T23:40:23.442Z,7.00
2023-11-08T23:42:51.397Z,5.60
2023-11-08T23:45:18.878Z,6.00
2023-11-08T23:47:46.198Z,6.70
2023-11-08T23:50:13.623Z,6.10
2023-11-08T23:52:40.881Z,6.30
2023-11-08T23:55:09.239Z,7.20
2023-11-08T23:57:36.730Z,6.90
